createdAt,value
2019-01-05T00:00:05.671Z,58.33
2019-01-05T00:02:53.870Z,80.87
2019-01-05T00:05:28.322Z,98.40
2019-01-05T00:11:05.058Z,63.60
2019-01-05T00:13:36.554Z,80.90
2019-01-05T00:16:28.203Z,110.87
2019-01-05T00:19:06.237Z,87.30
2019-01-05T00:21:41.105Z,140.43
2019-01-05T00:24:29.148Z,78.97
2019-01-05T00:27:09.886Z,80.90
2019-01-05T00:29:43.457Z,112.90
2019-01-05T00:32:32.027Z,79.60
2019-01-05T00:35:07.117Z,80.50
2019-01-05T00:37:43.186Z,66.97
2019-01-05T00:40:27.466Z,129.43
2019-01-05T00:42:59.658Z,73.27
2019-01-05T00:45:37.264Z,99.57
2019-01-05T00:48:12.383Z,133.90
2019-01-05T00:50:55.023Z,84.67
2019-01-05T00:53:33.190Z,92.93
2019-01-05T00:56:20.703Z,73.30
2019-01-05T00:59:08.734Z,87.57
2019-01-05T01:01:52.467Z,77.03
2019-01-05T01:04:26.469Z,69.63
2019-01-05T01:07:16.875Z,69.23
2019-01-05T01:09:48.307Z,79.20
2019-01-05T01:12:25.590Z,61.80
2019-01-05T01:15:06.362Z,57.13
2019-01-05T01:17:47.446Z,62.07
2019-01-05T01:20:31.259Z,80.87
2019-01-05T01:23:17.903Z,120.13
2019-01-05T01:26:06.299Z,80.83
2019-01-05T01:28:43.806Z,58.87
2019-01-05T01:31:31.474Z,55.30
2019-01-05T01:34:12.222Z,69.40
2019-01-05T01:36:43.947Z,61.87
2019-01-05T01:39:36.347Z,67.53
2019-01-05T01:42:25.303Z,64.50
2019-01-05T01:44:57.394Z,58.70
2019-01-05T01:47:34.116Z,71.23
2019-01-05T01:50:22.791Z,71.93
2019-01-05T01:52:57.215Z,48.63
2019-01-05T01:55:37.675Z,44.97
2019-01-05T01:58:13.064Z,62.57
2019-01-05T02:00:48.050Z,73.13
2019-01-05T02:03:28.362Z,59.17
2019-01-05T02:06:01.624Z,73.67
2019-01-05T02:08:36.223Z,69.53
2019-01-05T02:11:22.923Z,67.23
2019-01-05T02:14:12.190Z,84.20
2019-01-05T02:17:04.168Z,51.30
2019-01-05T02:19:57.744Z,97.73
2019-01-05T02:22:50.722Z,66.47
2019-01-05T02:25:53.310Z,55.23
2019-01-05T02:28:33.342Z,53.60
2019-01-05T02:31:36.421Z,45.20
2019-01-05T02:34:29.122Z,45.60
2019-01-05T02:37:18.216Z,79.07
2019-01-05T02:40:15.212Z,74.53
2019-01-05T02:43:10.783Z,36.77
2019-01-05T02:46:10.406Z,50.87
2019-01-05T02:49:02.558Z,41.47
2019-01-05T02:52:03.663Z,67.57
2019-01-05T02:54:49.555Z,36.97
2019-01-05T02:57:43.278Z,37.10
2019-01-05T03:00:46.298Z,33.10
2019-01-05T03:03:48.143Z,54.70
2019-01-05T03:06:40.903Z,32.90
2019-01-05T03:09:45.204Z,30.27
2019-01-05T03:12:33.953Z,28.00
2019-01-05T03:15:37.051Z,35.37
2019-01-05T03:18:40.152Z,29.43
2019-01-05T03:21:42.998Z,39.50
2019-01-05T03:24:39.975Z,32.37
2019-01-05T03:27:31.958Z,42.73
2019-01-05T03:30:18.563Z,26.33
2019-01-05T03:33:04.755Z,36.23
2019-01-05T03:35:58.922Z,46.73
2019-01-05T03:38:56.919Z,32.63
2019-01-05T03:41:55.559Z,36.60
2019-01-05T03:44:50.971Z,48.57
2019-01-05T03:48:10.562Z,49.97
2019-01-05T03:51:26.021Z,34.17
2019-01-05T03:54:34.818Z,36.30
2019-01-05T03:57:21.217Z,28.07
2019-01-05T04:00:13.769Z,33.57
2019-01-05T04:03:06.464Z,35.07
2019-01-05T04:06:04.856Z,38.07
2019-01-05T04:08:53.590Z,33.47
2019-01-05T04:11:30.570Z,38.40
2019-01-05T04:14:29.045Z,26.43
2019-01-05T04:17:30.586Z,63.17
2019-01-05T04:20:17.172Z,21.97
2019-01-05T04:23:00.342Z,30.30
2019-01-05T04:25:47.063Z,28.60
2019-01-05T04:28:39.166Z,22.27
2019-01-05T04:31:39.211Z,33.90
2019-01-05T04:34:39.507Z,38.27
2019-01-05T04:37:39.666Z,38.97
2019-01-05T04:40:40.874Z,25.93
2019-01-05T04:43:46.906Z,29.93
2019-01-05T04:46:49.291Z,26.93
2019-01-05T04:49:58.283Z,47.23
2019-01-05T04:52:55.325Z,26.27
2019-01-05T04:55:35.683Z,26.27
2019-01-05T04:58:26.706Z,32.03
2019-01-05T05:01:16.467Z,44.47
2019-01-05T05:04:17.566Z,24.67
2019-01-05T05:07:10.462Z,21.03
2019-01-05T05:10:20.962Z,22.13
2019-01-05T05:13:13.101Z,24.67
2019-01-05T05:16:14.658Z,34.87
2019-01-05T05:19:25.485Z,35.70
2019-01-05T05:22:35.867Z,38.33
2019-01-05T05:25:46.016Z,24.53
2019-01-05T05:28:48.879Z,27.23
2019-01-05T05:32:01.021Z,23.40
2019-01-05T05:35:02.672Z,28.33
2019-01-05T05:37:49.569Z,24.07
2019-01-05T05:40:51.551Z,33.00
2019-01-05T05:43:48.197Z,28.77
2019-01-05T05:46:28.394Z,43.40
2019-01-05T05:49:31.636Z,23.93
2019-01-05T05:52:28.915Z,22.00
2019-01-05T05:55:38.198Z,25.80
2019-01-05T05:58:30.904Z,25.17
2019-01-05T06:01:23.302Z,21.97
2019-01-05T06:04:22.210Z,34.30
2019-01-05T06:07:17.503Z,32.90
2019-01-05T06:10:30.462Z,27.90
2019-01-05T06:13:48.735Z,35.50
2019-01-05T06:16:37.985Z,42.50
2019-01-05T06:19:44.159Z,29.37
2019-01-05T06:22:44.142Z,31.10
2019-01-05T06:25:39.722Z,29.67
2019-01-05T06:28:21.257Z,35.27
2019-01-05T06:31:16.539Z,28.47
2019-01-05T06:34:13.979Z,39.20
2019-01-05T06:37:05.033Z,34.77
2019-01-05T06:40:00.027Z,38.37
2019-01-05T06:42:55.782Z,32.37
2019-01-05T06:45:59.016Z,28.80
2019-01-05T06:48:53.161Z,37.60
2019-01-05T06:51:52.923Z,29.63
2019-01-05T06:54:33.080Z,32.93
2019-01-05T06:57:35.694Z,28.67
2019-01-05T07:00:35.658Z,27.97
2019-01-05T07:03:29.667Z,39.43
2019-01-05T07:06:07.063Z,30.43
2019-01-05T07:09:14.766Z,42.07
2019-01-05T07:12:24.263Z,29.40
2019-01-05T07:15:04.426Z,41.33
2019-01-05T07:18:04.464Z,28.57
2019-01-05T07:20:41.575Z,27.13
2019-01-05T07:23:39.542Z,21.37
2019-01-05T07:26:53.370Z,29.63
2019-01-05T07:30:06.834Z,22.73
2019-01-05T07:33:25.098Z,26.03
2019-01-05T07:36:30.914Z,20.13
2019-01-05T07:39:33.892Z,31.33
2019-01-05T07:42:34.924Z,46.33
2019-01-05T07:45:33.121Z,36.83
2019-01-05T07:48:40.523Z,22.07
2019-01-05T07:51:57.327Z,32.40
2019-01-05T07:55:12.673Z,26.73
2019-01-05T07:58:09.374Z,22.73
2019-01-05T08:00:55.533Z,37.77
2019-01-05T08:03:38.447Z,32.73
2019-01-05T08:06:48.480Z,43.37
2019-01-05T08:09:43.907Z,25.13
2019-01-05T08:12:54.550Z,41.63
2019-01-05T08:15:59.022Z,23.73
2019-01-05T08:19:23.437Z,27.57
2019-01-05T08:22:38.151Z,30.10
2019-01-05T08:25:37.711Z,29.17
2019-01-05T08:28:43.845Z,26.13
2019-01-05T08:31:36.320Z,44.00
2019-01-05T08:34:29.585Z,23.17
2019-01-05T08:37:38.377Z,38.13
2019-01-05T08:40:34.992Z,23.97
2019-01-05T08:43:57.994Z,36.30
2019-01-05T08:47:14.901Z,32.37
2019-01-05T08:50:16.253Z,38.07
2019-01-05T08:53:40.380Z,31.97
2019-01-05T08:56:23.691Z,49.70
2019-01-05T08:59:19.019Z,41.80
2019-01-05T09:02:34.837Z,33.57
2019-01-05T09:05:36.924Z,32.53
2019-01-05T09:08:32.730Z,29.20
2019-01-05T09:11:52.899Z,28.97
2019-01-05T09:14:56.266Z,37.20
2019-01-05T09:17:31.381Z,31.93
2019-01-05T09:20:41.698Z,31.53
2019-01-05T09:23:46.684Z,35.77
2019-01-05T09:26:59.670Z,33.57
2019-01-05T09:29:59.618Z,40.77
2019-01-05T09:32:43.671Z,38.87
2019-01-05T09:36:10.349Z,35.50
2019-01-05T09:39:09.151Z,58.30
2019-01-05T09:42:00.578Z,50.47
2019-01-05T09:45:03.640Z,40.20
2019-01-05T09:48:05.065Z,37.87
2019-01-05T09:51:14.278Z,38.33
2019-01-05T09:54:35.159Z,40.03
2019-01-05T09:57:22.891Z,39.13
2019-01-05T10:00:14.985Z,51.13
2019-01-05T10:03:24.519Z,35.70
2019-01-05T10:06:31.337Z,48.57
2019-01-05T10:09:35.074Z,45.83
2019-01-05T10:12:28.654Z,45.40
2019-01-05T10:15:44.885Z,42.93
2019-01-05T10:18:46.897Z,35.20
2019-01-05T10:21:46.427Z,56.33
2019-01-05T10:24:55.486Z,38.33
2019-01-05T10:27:50.247Z,43.17
2019-01-05T10:30:47.995Z,44.17
2019-01-05T10:33:41.277Z,49.67
2019-01-05T10:36:48.763Z,55.63
2019-01-05T10:39:48.719Z,41.87
2019-01-05T10:43:00.230Z,82.73
2019-01-05T10:45:53.478Z,45.70
2019-01-05T10:49:12.219Z,56.37
2019-01-05T10:52:12.270Z,49.33
2019-01-05T10:55:03.514Z,46.17
2019-01-05T10:58:14.472Z,39.80
2019-01-05T11:01:13.013Z,46.03
2019-01-05T11:04:15.481Z,42.83
2019-01-05T11:07:23.808Z,39.50
2019-01-05T11:10:26.144Z,58.90
2019-01-05T11:13:44.276Z,57.93
2019-01-05T11:16:35.678Z,40.63
2019-01-05T11:19:35.655Z,65.47
2019-01-05T11:22:29.677Z,67.43
2019-01-05T11:25:39.400Z,49.10
2019-01-05T11:28:39.428Z,53.80
2019-01-05T11:31:49.095Z,52.90
2019-01-05T11:35:07.870Z,54.97
2019-01-05T11:38:10.598Z,44.80
2019-01-05T11:41:08.411Z,61.60
2019-01-05T11:44:19.104Z,42.47
2019-01-05T11:47:01.116Z,49.23
2019-01-05T11:50:10.878Z,45.50
2019-01-05T11:53:15.886Z,51.10
2019-01-05T11:56:25.819Z,52.97
2019-01-05T11:59:12.568Z,66.40
2019-01-05T12:02:24.739Z,59.00
2019-01-05T12:05:17.123Z,54.93
2019-01-05T12:08:08.085Z,61.40
2019-01-05T12:11:08.271Z,95.23
2019-01-05T12:13:53.022Z,60.90
2019-01-05T12:16:40.889Z,70.90
2019-01-05T12:19:42.596Z,60.20
2019-01-05T12:22:50.719Z,70.73
2019-01-05T12:25:48.373Z,114.27
2019-01-05T12:28:34.839Z,62.67
2019-01-05T12:31:32.020Z,70.30
2019-01-05T12:34:21.399Z,80.13
2019-01-05T12:37:21.340Z,70.63
2019-01-05T12:40:21.478Z,69.30
2019-01-05T12:43:18.407Z,58.93
2019-01-05T12:46:33.772Z,60.77
2019-01-05T12:49:27.156Z,109.27
2019-01-05T12:52:25.570Z,66.03
2019-01-05T12:55:22.799Z,71.23
2019-01-05T12:58:18.416Z,58.13
2019-01-05T13:01:36.305Z,55.40
2019-01-05T13:04:27.309Z,131.57
2019-01-05T13:07:21.033Z,72.20
2019-01-05T13:10:27.094Z,65.17
2019-01-05T13:13:31.679Z,78.93
2019-01-05T13:16:45.465Z,84.40
2019-01-05T13:19:53.697Z,81.87
2019-01-05T13:22:47.599Z,85.03
2019-01-05T13:25:56.616Z,88.27
2019-01-05T13:28:51.911Z,86.70
2019-01-05T13:31:38.378Z,86.40
2019-01-05T13:34:45.519Z,111.83
2019-01-05T13:37:57.646Z,94.33
2019-01-05T13:40:47.525Z,88.97
2019-01-05T13:43:44.364Z,82.27
2019-01-05T13:46:44.439Z,105.47
2019-01-05T13:50:06.684Z,67.10
2019-01-05T13:52:58.927Z,33.57
2019-01-05T13:55:57.246Z,26.53
2019-01-05T13:58:28.769Z,22.83
2019-01-05T14:01:16.697Z,20.47
2019-01-05T14:04:00.715Z,22.63
2019-01-05T14:06:46.439Z,22.30
2019-01-05T14:09:20.728Z,27.47
2019-01-05T14:12:10.254Z,23.33
2019-01-05T14:14:51.832Z,26.33
2019-01-05T14:17:40.430Z,26.50
2019-01-05T14:20:33.955Z,29.53
2019-01-05T14:23:08.401Z,31.70
2019-01-05T14:25:45.876Z,29.67
2019-01-05T14:28:32.430Z,31.00
2019-01-05T14:31:07.013Z,31.73
2019-01-05T14:33:44.172Z,29.77
2019-01-05T14:36:21.612Z,28.60
2019-01-05T14:39:09.693Z,22.03
2019-01-05T14:41:57.697Z,26.73
2019-01-05T14:44:47.367Z,19.83
2019-01-05T14:47:35.044Z,23.37
2019-01-05T14:50:26.207Z,25.67
2019-01-05T14:52:57.691Z,22.80
2019-01-05T14:55:35.167Z,17.87
2019-01-05T14:58:06.801Z,20.57
2019-01-05T15:00:40.702Z,20.60
2019-01-05T15:03:12.205Z,21.00
2019-01-05T15:05:55.336Z,20.17
2019-01-05T15:08:35.996Z,22.13
2019-01-05T15:11:23.556Z,18.40
2019-01-05T15:14:20.347Z,19.53
2019-01-05T15:16:51.759Z,24.10
2019-01-05T15:19:32.518Z,21.57
2019-01-05T15:22:12.998Z,23.17
2019-01-05T15:24:48.718Z,23.67
2019-01-05T15:27:29.961Z,22.00
2019-01-05T15:30:05.183Z,36.53
2019-01-05T15:33:13.636Z,22.73
2019-01-05T15:35:48.206Z,22.00
2019-01-05T15:38:31.399Z,28.43
2019-01-05T15:41:12.113Z,20.00
2019-01-05T15:43:55.906Z,21.83
2019-01-05T15:46:27.540Z,23.57
2019-01-05T15:48:59.934Z,25.27
2019-01-05T15:51:32.088Z,21.80
2019-01-05T15:57:00.010Z,17.67
2019-01-05T15:59:31.745Z,25.13
2019-01-05T16:02:19.705Z,22.37
2019-01-05T16:04:51.283Z,22.80
2019-01-05T16:07:39.852Z,22.53
2019-01-05T16:10:18.774Z,30.13
2019-01-05T16:12:57.714Z,24.93
2019-01-05T16:15:41.088Z,29.10
2019-01-05T16:18:29.419Z,26.50
2019-01-05T16:21:19.449Z,65.20
2019-01-05T16:23:52.199Z,41.40
2019-01-05T16:26:27.465Z,33.13
2019-01-05T16:29:07.201Z,28.77
2019-01-05T16:31:46.485Z,28.17
2019-01-05T16:34:35.219Z,49.40
2019-01-05T16:37:23.094Z,27.57
2019-01-05T16:39:57.880Z,26.07
2019-01-05T16:42:35.644Z,41.27
2019-01-05T16:45:25.718Z,70.07
2019-01-05T16:48:15.639Z,69.10
2019-01-05T16:50:49.902Z,39.40
2019-01-05T16:53:36.175Z,34.47
2019-01-05T16:56:13.864Z,48.77
2019-01-05T16:58:57.363Z,116.47
2019-01-05T17:01:44.752Z,118.10
2019-01-05T17:04:18.807Z,56.83
2019-01-05T17:06:50.314Z,61.37
2019-01-05T17:09:21.725Z,128.53
2019-01-05T17:11:55.828Z,80.97
2019-01-05T17:14:45.287Z,53.97
2019-01-05T17:17:16.849Z,57.77
2019-01-05T17:20:06.344Z,53.50
2019-01-05T17:22:40.685Z,44.27
2019-01-05T17:25:18.363Z,42.90
2019-01-05T17:28:06.910Z,57.80
2019-01-05T17:30:56.374Z,47.20
2019-01-05T17:33:45.956Z,61.33
2019-01-05T17:36:17.445Z,54.63
2019-01-05T17:38:50.251Z,45.47
2019-01-05T17:41:38.347Z,53.67
2019-01-05T17:44:09.872Z,55.53
2019-01-05T17:46:41.401Z,53.43
2019-01-05T17:49:29.158Z,51.13
2019-01-05T17:52:15.595Z,55.17
2019-01-05T17:54:58.970Z,51.00
2019-01-05T17:57:30.530Z,51.67
2019-01-05T18:00:04.728Z,60.87
2019-01-05T18:02:42.602Z,56.27
2019-01-05T18:05:19.847Z,64.07
2019-01-05T18:08:03.288Z,58.93
2019-01-05T18:10:54.128Z,59.23
2019-01-05T18:13:28.336Z,59.80
2019-01-05T18:16:05.818Z,63.13
2019-01-05T18:18:46.278Z,59.33
2019-01-05T18:21:17.723Z,62.33
2019-01-05T18:23:52.049Z,61.23
2019-01-05T18:26:32.711Z,66.10
2019-01-05T18:29:16.161Z,67.83
2019-01-05T18:32:04.442Z,55.73
2019-01-05T18:34:36.004Z,55.73
2019-01-05T18:37:07.690Z,59.70
2019-01-05T18:39:45.110Z,64.27
2019-01-05T18:42:19.863Z,54.60
2019-01-05T18:45:09.109Z,62.40
2019-01-05T18:48:00.774Z,57.50
2019-01-05T18:50:47.891Z,50.77
2019-01-05T18:53:37.877Z,40.73
2019-01-05T18:56:14.299Z,41.87
2019-01-05T18:58:53.033Z,39.53
2019-01-05T19:01:42.314Z,33.80
2019-01-05T19:04:20.926Z,32.63
2019-01-05T19:07:05.098Z,26.90
2019-01-05T19:09:42.547Z,22.30
2019-01-05T19:12:15.032Z,27.83
2019-01-05T19:14:47.088Z,25.47
2019-01-05T19:17:35.841Z,21.90
2019-01-05T19:20:18.373Z,22.63
2019-01-05T19:22:53.100Z,19.83
2019-01-05T19:25:27.396Z,18.97
2019-01-05T19:28:10.852Z,19.93
2019-01-05T19:30:50.908Z,21.70
2019-01-05T19:33:49.972Z,17.97
2019-01-05T19:36:40.118Z,20.03
2019-01-05T19:39:41.928Z,25.67
2019-01-05T19:42:31.157Z,19.73
2019-01-05T19:45:08.854Z,19.20
2019-01-05T19:47:45.875Z,19.10
2019-01-05T19:50:38.046Z,19.83
2019-01-05T19:53:14.198Z,16.47
2019-01-05T19:56:00.767Z,17.33
2019-01-05T19:58:49.022Z,15.60
2019-01-05T20:01:20.770Z,16.77
2019-01-05T20:03:58.562Z,21.90
2019-01-05T20:06:36.620Z,14.73
2019-01-05T20:09:12.184Z,18.37
2019-01-05T20:11:53.101Z,20.00
2019-01-05T20:14:24.974Z,23.73
2019-01-05T20:17:08.645Z,19.23
2019-01-05T20:19:40.619Z,26.97
2019-01-05T20:22:19.344Z,24.20
2019-01-05T20:24:51.960Z,21.03
2019-01-05T20:27:42.573Z,24.77
2019-01-05T20:30:30.609Z,23.40
2019-01-05T20:33:05.305Z,24.10
2019-01-05T20:35:56.053Z,27.03
2019-01-05T20:38:32.123Z,24.83
2019-01-05T20:41:09.809Z,24.57
2019-01-05T20:43:51.774Z,24.77
2019-01-05T20:46:38.888Z,28.37
2019-01-05T20:49:29.797Z,17.23
2019-01-05T20:52:06.404Z,22.20
2019-01-05T20:54:57.025Z,22.57
2019-01-05T20:57:34.772Z,17.60
2019-01-05T21:00:25.578Z,20.87
2019-01-05T21:03:00.812Z,19.70
2019-01-05T21:05:36.440Z,17.50
2019-01-05T21:08:17.360Z,15.53
2019-01-05T21:10:51.802Z,17.23
2019-01-05T21:13:35.936Z,17.83
2019-01-05T21:16:28.183Z,19.60
2019-01-05T21:19:04.566Z,16.77
2019-01-05T21:21:54.764Z,18.03
2019-01-05T21:24:35.438Z,18.57
2019-01-05T21:27:10.076Z,16.63
2019-01-05T21:29:44.927Z,19.27
2019-01-05T21:32:26.692Z,22.53
2019-01-05T21:35:16.696Z,56.20
2019-01-05T21:38:03.330Z,26.17
2019-01-05T21:40:47.515Z,26.23
2019-01-05T21:43:36.150Z,26.80
2019-01-05T21:46:33.826Z,28.77
2019-01-05T21:49:37.136Z,29.57
2019-01-05T21:52:22.836Z,25.40
2019-01-05T21:55:23.339Z,24.50
2019-01-05T21:58:12.546Z,27.40
2019-01-05T22:00:50.405Z,25.40
2019-01-05T22:03:28.222Z,23.73
2019-01-05T22:06:12.193Z,88.90
2019-01-05T22:08:52.716Z,27.87
2019-01-05T22:11:24.349Z,24.87
2019-01-05T22:13:58.254Z,29.90
2019-01-05T22:16:35.384Z,24.73
2019-01-05T22:19:21.867Z,26.13
2019-01-05T22:21:57.194Z,26.90
2019-01-05T22:24:38.143Z,27.50
2019-01-05T22:27:28.153Z,31.00
2019-01-05T22:30:09.444Z,24.17
2019-01-05T22:32:50.224Z,22.57
2019-01-05T22:35:39.194Z,20.07
2019-01-05T22:38:21.224Z,22.03
2019-01-05T22:40:53.071Z,19.43
2019-01-05T22:43:41.218Z,25.17
2019-01-05T22:46:17.350Z,15.60
2019-01-05T22:49:00.978Z,20.53
2019-01-05T22:51:38.198Z,19.37
2019-01-05T22:54:09.527Z,22.63
2019-01-05T22:56:57.340Z,20.30
2019-01-05T22:59:34.513Z,17.13
2019-01-05T23:02:22.164Z,18.53
2019-01-05T23:05:03.150Z,18.97
2019-01-05T23:07:34.834Z,19.50
2019-01-05T23:10:19.690Z,17.97
2019-01-05T23:13:10.856Z,20.60
2019-01-05T23:15:59.484Z,14.40
2019-01-05T23:18:41.763Z,17.00
2019-01-05T23:21:19.962Z,16.27
2019-01-05T23:24:05.621Z,13.70
2019-01-05T23:26:43.863Z,14.30
2019-01-05T23:29:30.868Z,16.67
2019-01-05T23:32:06.974Z,13.80
2019-01-05T23:34:57.520Z,17.90
2019-01-05T23:37:30.610Z,17.27
2019-01-05T23:40:03.178Z,16.77
2019-01-05T23:42:38.654Z,16.17
2019-01-05T23:45:31.195Z,18.53
2019-01-05T23:48:11.246Z,15.93
2019-01-05T23:50:44.278Z,16.87
2019-01-05T23:53:40.202Z,17.03
2019-01-05T23:56:30.852Z,18.00
2019-01-05T23:59:12.229Z,16.93
